sensor_id;sensor_type;location;lat;lon;timestamp;temperature;humidity
81524;DHT22;70954;49.500;10.416;2023-08-12T00:01:17;22.00;57.30
81524;DHT22;70954;49.500;10.416;2023-08-12T00:03:42;21.90;57.30
81524;DHT22;70954;49.500;10.416;2023-08-12T00:06:08;21.90;57.50
81524;DHT22;70954;49.500;10.416;2023-08-12T00:08:33;21.90;57.60
81524;DHT22;70954;49.500;10.416;2023-08-12T00:10:59;21.90;57.70
81524;DHT22;70954;49.500;10.416;2023-08-12T00:13:24;21.90;57.80
81524;DHT22;70954;49.500;10.416;2023-08-12T00:15:50;21.80;57.90
81524;DHT22;70954;49.500;10.416;2023-08-12T00:18:15;21.70;58.00
81524;DHT22;70954;49.500;10.416;2023-08-12T00:20:41;21.70;58.00
81524;DHT22;70954;49.500;10.416;2023-08-12T00:23:07;21.70;58.10
81524;DHT22;70954;49.500;10.416;2023-08-12T00:25:32;21.70;58.20
81524;DHT22;70954;49.500;10.416;2023-08-12T00:27:58;21.70;58.20
81524;DHT22;70954;49.500;10.416;2023-08-12T00:30:23;21.60;58.30
81524;DHT22;70954;49.500;10.416;2023-08-12T00:32:48;21.50;58.40
81524;DHT22;70954;49.500;10.416;2023-08-12T00:35:14;21.50;58.40
81524;DHT22;70954;49.500;10.416;2023-08-12T00:37:39;21.50;58.50
81524;DHT22;70954;49.500;10.416;2023-08-12T00:40:05;21.50;58.60
81524;DHT22;70954;49.500;10.416;2023-08-12T00:42:31;21.50;58.60
81524;DHT22;70954;49.500;10.416;2023-08-12T00:44:57;21.50;58.70
81524;DHT22;70954;49.500;10.416;2023-08-12T00:47:23;21.50;58.70
81524;DHT22;70954;49.500;10.416;2023-08-12T00:49:49;21.50;58.70
81524;DHT22;70954;49.500;10.416;2023-08-12T00:52:15;21.50;58.80
81524;DHT22;70954;49.500;10.416;2023-08-12T00:54:41;21.40;58.80
81524;DHT22;70954;49.500;10.416;2023-08-12T00:57:07;21.40;58.90
81524;DHT22;70954;49.500;10.416;2023-08-12T00:59:35;21.40;58.80
81524;DHT22;70954;49.500;10.416;2023-08-12T01:02:01;21.40;58.90
81524;DHT22;70954;49.500;10.416;2023-08-12T01:04:27;21.40;58.90
81524;DHT22;70954;49.500;10.416;2023-08-12T01:06:52;21.40;58.90
81524;DHT22;70954;49.500;10.416;2023-08-12T01:09:18;21.40;58.90
81524;DHT22;70954;49.500;10.416;2023-08-12T01:14:54;21.40;59.00
81524;DHT22;70954;49.500;10.416;2023-08-12T01:17:21;21.40;59.40
81524;DHT22;70954;49.500;10.416;2023-08-12T01:19:47;21.30;59.00
81524;DHT22;70954;49.500;10.416;2023-08-12T01:22:14;21.30;59.00
81524;DHT22;70954;49.500;10.416;2023-08-12T01:24:43;21.30;59.10
81524;DHT22;70954;49.500;10.416;2023-08-12T01:27:11;21.30;59.10
81524;DHT22;70954;49.500;10.416;2023-08-12T01:29:42;21.30;59.20
81524;DHT22;70954;49.500;10.416;2023-08-12T01:35:04;21.30;59.50
81524;DHT22;70954;49.500;10.416;2023-08-12T01:37:32;21.20;59.50
81524;DHT22;70954;49.500;10.416;2023-08-12T01:40:00;21.30;59.30
81524;DHT22;70954;49.500;10.416;2023-08-12T01:42:27;21.20;59.30
81524;DHT22;70954;49.500;10.416;2023-08-12T01:44:54;21.20;59.40
81524;DHT22;70954;49.500;10.416;2023-08-12T01:47:19;21.20;59.40
81524;DHT22;70954;49.500;10.416;2023-08-12T01:49:45;21.10;59.30
81524;DHT22;70954;49.500;10.416;2023-08-12T01:52:10;21.20;59.40
81524;DHT22;70954;49.500;10.416;2023-08-12T01:54:36;21.20;59.40
81524;DHT22;70954;49.500;10.416;2023-08-12T01:57:04;21.20;59.40
81524;DHT22;70954;49.500;10.416;2023-08-12T01:59:30;21.20;59.40
81524;DHT22;70954;49.500;10.416;2023-08-12T02:01:55;21.20;59.40
81524;DHT22;70954;49.500;10.416;2023-08-12T02:04:21;21.10;59.40
81524;DHT22;70954;49.500;10.416;2023-08-12T02:06:46;21.10;59.40
81524;DHT22;70954;49.500;10.416;2023-08-12T02:09:12;21.10;59.40
81524;DHT22;70954;49.500;10.416;2023-08-12T02:11:37;21.10;59.50
81524;DHT22;70954;49.500;10.416;2023-08-12T02:14:02;21.10;59.50
81524;DHT22;70954;49.500;10.416;2023-08-12T02:16:28;21.10;59.50
81524;DHT22;70954;49.500;10.416;2023-08-12T02:18:53;21.10;59.50
81524;DHT22;70954;49.500;10.416;2023-08-12T02:21:19;21.10;59.50
81524;DHT22;70954;49.500;10.416;2023-08-12T02:23:44;21.10;59.50
81524;DHT22;70954;49.500;10.416;2023-08-12T02:26:10;21.10;59.50
81524;DHT22;70954;49.500;10.416;2023-08-12T02:28:35;21.10;59.50
81524;DHT22;70954;49.500;10.416;2023-08-12T02:31:01;21.10;59.50
81524;DHT22;70954;49.500;10.416;2023-08-12T02:33:27;21.10;59.50
81524;DHT22;70954;49.500;10.416;2023-08-12T02:35:54;21.10;59.50
81524;DHT22;70954;49.500;10.416;2023-08-12T02:38:19;21.10;59.50
81524;DHT22;70954;49.500;10.416;2023-08-12T02:40:48;21.10;59.40
81524;DHT22;70954;49.500;10.416;2023-08-12T02:43:13;21.10;59.50
81524;DHT22;70954;49.500;10.416;2023-08-12T02:45:39;21.10;59.50
81524;DHT22;70954;49.500;10.416;2023-08-12T02:48:04;21.10;59.40
81524;DHT22;70954;49.500;10.416;2023-08-12T02:50:30;21.10;59.30
81524;DHT22;70954;49.500;10.416;2023-08-12T02:52:55;21.10;59.30
81524;DHT22;70954;49.500;10.416;2023-08-12T02:55:21;21.10;59.30
81524;DHT22;70954;49.500;10.416;2023-08-12T02:57:46;21.10;59.20
81524;DHT22;70954;49.500;10.416;2023-08-12T03:00:12;21.10;59.20
81524;DHT22;70954;49.500;10.416;2023-08-12T03:02:38;21.10;59.10
81524;DHT22;70954;49.500;10.416;2023-08-12T03:05:03;21.10;59.10
81524;DHT22;70954;49.500;10.416;2023-08-12T03:07:29;21.10;59.00
81524;DHT22;70954;49.500;10.416;2023-08-12T03:09:54;21.10;59.00
81524;DHT22;70954;49.500;10.416;2023-08-12T03:12:20;21.20;59.00
81524;DHT22;70954;49.500;10.416;2023-08-12T03:14:45;21.20;59.00
81524;DHT22;70954;49.500;10.416;2023-08-12T03:17:11;21.20;58.90
81524;DHT22;70954;49.500;10.416;2023-08-12T03:19:36;21.30;58.90
81524;DHT22;70954;49.500;10.416;2023-08-12T03:22:02;21.30;58.80
81524;DHT22;70954;49.500;10.416;2023-08-12T03:24:27;21.30;58.80
81524;DHT22;70954;49.500;10.416;2023-08-12T03:26:53;21.30;58.80
81524;DHT22;70954;49.500;10.416;2023-08-12T03:29:18;21.30;58.70
81524;DHT22;70954;49.500;10.416;2023-08-12T03:31:44;21.30;58.70
81524;DHT22;70954;49.500;10.416;2023-08-12T03:34:09;21.30;58.70
81524;DHT22;70954;49.500;10.416;2023-08-12T03:36:35;21.30;58.60
81524;DHT22;70954;49.500;10.416;2023-08-12T03:39:01;21.40;58.60
81524;DHT22;70954;49.500;10.416;2023-08-12T03:41:27;21.40;58.60
81524;DHT22;70954;49.500;10.416;2023-08-12T03:43:52;21.40;58.50
81524;DHT22;70954;49.500;10.416;2023-08-12T03:46:18;21.40;58.50
81524;DHT22;70954;49.500;10.416;2023-08-12T03:48:43;21.40;58.40
81524;DHT22;70954;49.500;10.416;2023-08-12T03:51:09;21.40;58.40
81524;DHT22;70954;49.500;10.416;2023-08-12T03:53:34;21.40;58.40
81524;DHT22;70954;49.500;10.416;2023-08-12T03:56:00;21.40;58.30
81524;DHT22;70954;49.500;10.416;2023-08-12T03:58:25;21.40;58.30
81524;DHT22;70954;49.500;10.416;2023-08-12T04:00:50;21.40;58.30
81524;DHT22;70954;49.500;10.416;2023-08-12T04:03:16;21.40;58.30
81524;DHT22;70954;49.500;10.416;2023-08-12T04:05:51;21.40;58.30
81524;DHT22;70954;49.500;10.416;2023-08-12T04:08:16;21.50;58.30
81524;DHT22;70954;49.500;10.416;2023-08-12T04:10:45;21.40;58.30
81524;DHT22;70954;49.500;10.416;2023-08-12T04:13:10;21.50;58.30
81524;DHT22;70954;49.500;10.416;2023-08-12T04:15:35;21.50;58.30
81524;DHT22;70954;49.500;10.416;2023-08-12T04:18:01;21.50;58.40
81524;DHT22;70954;49.500;10.416;2023-08-12T04:20:26;21.50;58.40
81524;DHT22;70954;49.500;10.416;2023-08-12T04:22:52;21.50;58.50
81524;DHT22;70954;49.500;10.416;2023-08-12T04:25:18;21.50;58.50
81524;DHT22;70954;49.500;10.416;2023-08-12T04:27:43;21.50;58.50
81524;DHT22;70954;49.500;10.416;2023-08-12T04:30:09;21.50;58.50
81524;DHT22;70954;49.500;10.416;2023-08-12T04:32:34;21.50;58.50
81524;DHT22;70954;49.500;10.416;2023-08-12T04:35:00;21.50;58.60
81524;DHT22;70954;49.500;10.416;2023-08-12T04:37:25;21.50;58.60
81524;DHT22;70954;49.500;10.416;2023-08-12T04:39:51;21.60;58.60
81524;DHT22;70954;49.500;10.416;2023-08-12T04:42:36;21.60;58.70
81524;DHT22;70954;49.500;10.416;2023-08-12T04:45:02;21.70;58.60
81524;DHT22;70954;49.500;10.416;2023-08-12T04:47:28;21.70;58.70
81524;DHT22;70954;49.500;10.416;2023-08-12T04:49:53;21.70;58.70
81524;DHT22;70954;49.500;10.416;2023-08-12T04:52:18;21.70;58.70
81524;DHT22;70954;49.500;10.416;2023-08-12T04:54:44;21.90;58.70
81524;DHT22;70954;49.500;10.416;2023-08-12T04:57:09;21.90;58.70
81524;DHT22;70954;49.500;10.416;2023-08-12T04:59:35;21.90;58.70
81524;DHT22;70954;49.500;10.416;2023-08-12T05:02:00;21.90;58.50
81524;DHT22;70954;49.500;10.416;2023-08-12T05:04:26;22.00;58.50
81524;DHT22;70954;49.500;10.416;2023-08-12T05:06:51;22.00;58.50
81524;DHT22;70954;49.500;10.416;2023-08-12T05:09:17;22.10;58.40
81524;DHT22;70954;49.500;10.416;2023-08-12T05:11:42;22.10;58.40
81524;DHT22;70954;49.500;10.416;2023-08-12T05:14:07;22.20;58.30
81524;DHT22;70954;49.500;10.416;2023-08-12T05:16:33;22.20;58.30
81524;DHT22;70954;49.500;10.416;2023-08-12T05:18:58;22.30;58.30
81524;DHT22;70954;49.500;10.416;2023-08-12T05:21:24;22.30;58.30
81524;DHT22;70954;49.500;10.416;2023-08-12T05:23:49;22.30;58.30
81524;DHT22;70954;49.500;10.416;2023-08-12T05:26:15;22.40;58.30
81524;DHT22;70954;49.500;10.416;2023-08-12T05:28:40;22.40;58.20
81524;DHT22;70954;49.500;10.416;2023-08-12T05:31:06;22.50;58.20
81524;DHT22;70954;49.500;10.416;2023-08-12T05:33:31;22.50;58.20
81524;DHT22;70954;49.500;10.416;2023-08-12T05:35:56;22.50;58.20
81524;DHT22;70954;49.500;10.416;2023-08-12T05:38:22;22.60;58.10
81524;DHT22;70954;49.500;10.416;2023-08-12T05:40:47;22.60;58.00
81524;DHT22;70954;49.500;10.416;2023-08-12T05:43:13;22.60;58.00
81524;DHT22;70954;49.500;10.416;2023-08-12T05:45:38;22.70;58.00
81524;DHT22;70954;49.500;10.416;2023-08-12T05:48:04;22.70;57.90
81524;DHT22;70954;49.500;10.416;2023-08-12T05:50:30;22.70;57.90
81524;DHT22;70954;49.500;10.416;2023-08-12T05:52:55;22.80;57.80
81524;DHT22;70954;49.500;10.416;2023-08-12T05:55:20;22.80;57.90
81524;DHT22;70954;49.500;10.416;2023-08-12T05:57:46;22.80;58.00
81524;DHT22;70954;49.500;10.416;2023-08-12T06:00:12;22.90;58.00
81524;DHT22;70954;49.500;10.416;2023-08-12T06:02:37;22.90;58.10
81524;DHT22;70954;49.500;10.416;2023-08-12T06:05:03;22.90;58.20
81524;DHT22;70954;49.500;10.416;2023-08-12T06:07:29;23.00;58.20
81524;DHT22;70954;49.500;10.416;2023-08-12T06:09:54;23.00;58.10
81524;DHT22;70954;49.500;10.416;2023-08-12T06:12:19;23.00;58.00
81524;DHT22;70954;49.500;10.416;2023-08-12T06:14:45;23.10;58.00
81524;DHT22;70954;49.500;10.416;2023-08-12T06:17:10;23.10;57.90
81524;DHT22;70954;49.500;10.416;2023-08-12T06:19:36;23.10;57.90
81524;DHT22;70954;49.500;10.416;2023-08-12T06:22:01;23.20;57.90
81524;DHT22;70954;49.500;10.416;2023-08-12T06:24:27;23.20;57.80
81524;DHT22;70954;49.500;10.416;2023-08-12T06:26:52;23.30;57.80
81524;DHT22;70954;49.500;10.416;2023-08-12T06:29:18;23.30;57.80
81524;DHT22;70954;49.500;10.416;2023-08-12T06:31:43;23.30;57.80
81524;DHT22;70954;49.500;10.416;2023-08-12T06:34:09;23.40;57.80
81524;DHT22;70954;49.500;10.416;2023-08-12T06:36:34;23.40;57.90
81524;DHT22;70954;49.500;10.416;2023-08-12T06:38:59;23.50;57.80
81524;DHT22;70954;49.500;10.416;2023-08-12T06:41:25;23.50;57.70
81524;DHT22;70954;49.500;10.416;2023-08-12T06:43:50;23.60;57.60
81524;DHT22;70954;49.500;10.416;2023-08-12T06:46:16;23.60;57.60
81524;DHT22;70954;49.500;10.416;2023-08-12T06:48:41;23.60;57.60
81524;DHT22;70954;49.500;10.416;2023-08-12T06:51:07;23.60;57.70
81524;DHT22;70954;49.500;10.416;2023-08-12T06:53:32;23.60;57.70
81524;DHT22;70954;49.500;10.416;2023-08-12T06:55:58;23.70;57.70
81524;DHT22;70954;49.500;10.416;2023-08-12T06:58:23;23.80;57.80
81524;DHT22;70954;49.500;10.416;2023-08-12T07:00:49;23.80;57.90
81524;DHT22;70954;49.500;10.416;2023-08-12T07:03:14;23.90;57.90
81524;DHT22;70954;49.500;10.416;2023-08-12T07:05:39;23.90;57.70
81524;DHT22;70954;49.500;10.416;2023-08-12T07:08:05;23.90;57.60
81524;DHT22;70954;49.500;10.416;2023-08-12T07:10:30;24.00;57.40
81524;DHT22;70954;49.500;10.416;2023-08-12T07:12:56;24.00;57.40
81524;DHT22;70954;49.500;10.416;2023-08-12T07:15:21;24.00;57.50
81524;DHT22;70954;49.500;10.416;2023-08-12T07:17:47;24.00;57.50
81524;DHT22;70954;49.500;10.416;2023-08-12T07:20:12;24.10;57.70
81524;DHT22;70954;49.500;10.416;2023-08-12T07:22:38;24.20;57.80
81524;DHT22;70954;49.500;10.416;2023-08-12T07:25:03;24.20;57.90
81524;DHT22;70954;49.500;10.416;2023-08-12T07:27:29;24.30;58.10
81524;DHT22;70954;49.500;10.416;2023-08-12T07:29:54;24.40;58.10
81524;DHT22;70954;49.500;10.416;2023-08-12T07:32:21;24.40;58.10
81524;DHT22;70954;49.500;10.416;2023-08-12T07:34:46;24.50;58.10
81524;DHT22;70954;49.500;10.416;2023-08-12T07:37:11;24.60;58.00
81524;DHT22;70954;49.500;10.416;2023-08-12T07:39:37;24.70;57.90
81524;DHT22;70954;49.500;10.416;2023-08-12T07:42:03;24.80;57.70
81524;DHT22;70954;49.500;10.416;2023-08-12T07:44:28;25.00;57.60
81524;DHT22;70954;49.500;10.416;2023-08-12T07:46:54;25.00;57.40
81524;DHT22;70954;49.500;10.416;2023-08-12T07:49:19;25.20;57.20
81524;DHT22;70954;49.500;10.416;2023-08-12T07:51:45;25.30;57.00
81524;DHT22;70954;49.500;10.416;2023-08-12T07:54:10;25.40;56.90
81524;DHT22;70954;49.500;10.416;2023-08-12T07:56:35;25.50;56.80
81524;DHT22;70954;49.500;10.416;2023-08-12T07:59:01;25.60;56.60
81524;DHT22;70954;49.500;10.416;2023-08-12T08:01:26;25.60;56.40
81524;DHT22;70954;49.500;10.416;2023-08-12T08:03:52;25.70;56.40
81524;DHT22;70954;49.500;10.416;2023-08-12T08:06:18;25.80;56.10
81524;DHT22;70954;49.500;10.416;2023-08-12T08:08:43;25.80;55.90
81524;DHT22;70954;49.500;10.416;2023-08-12T08:11:08;26.00;55.80
81524;DHT22;70954;49.500;10.416;2023-08-12T08:13:34;26.00;55.70
81524;DHT22;70954;49.500;10.416;2023-08-12T08:15:59;26.10;55.70
81524;DHT22;70954;49.500;10.416;2023-08-12T08:18:25;26.10;55.70
81524;DHT22;70954;49.500;10.416;2023-08-12T08:20:50;26.20;55.50
81524;DHT22;70954;49.500;10.416;2023-08-12T08:23:16;26.40;55.30
81524;DHT22;70954;49.500;10.416;2023-08-12T08:25:41;26.40;55.20
81524;DHT22;70954;49.500;10.416;2023-08-12T08:28:07;26.50;55.00
81524;DHT22;70954;49.500;10.416;2023-08-12T08:30:32;26.50;54.90
81524;DHT22;70954;49.500;10.416;2023-08-12T08:32:57;26.60;54.70
81524;DHT22;70954;49.500;10.416;2023-08-12T08:35:23;26.70;54.50
81524;DHT22;70954;49.500;10.416;2023-08-12T08:37:48;26.80;54.50
81524;DHT22;70954;49.500;10.416;2023-08-12T08:40:14;26.80;54.60
81524;DHT22;70954;49.500;10.416;2023-08-12T08:42:41;26.90;54.50
81524;DHT22;70954;49.500;10.416;2023-08-12T08:45:12;27.00;54.00
81524;DHT22;70954;49.500;10.416;2023-08-12T08:47:38;27.10;53.50
81524;DHT22;70954;49.500;10.416;2023-08-12T08:50:04;27.20;53.70
81524;DHT22;70954;49.500;10.416;2023-08-12T08:52:31;27.30;53.60
81524;DHT22;70954;49.500;10.416;2023-08-12T08:54:58;27.40;53.50
81524;DHT22;70954;49.500;10.416;2023-08-12T08:57:24;27.40;53.10
81524;DHT22;70954;49.500;10.416;2023-08-12T08:59:49;27.50;52.60
81524;DHT22;70954;49.500;10.416;2023-08-12T09:02:18;27.50;52.70
81524;DHT22;70954;49.500;10.416;2023-08-12T09:04:45;27.70;52.60
81524;DHT22;70954;49.500;10.416;2023-08-12T09:07:11;27.70;52.50
81524;DHT22;70954;49.500;10.416;2023-08-12T09:09:39;27.80;52.60
81524;DHT22;70954;49.500;10.416;2023-08-12T09:12:05;27.80;52.80
81524;DHT22;70954;49.500;10.416;2023-08-12T09:14:31;27.90;52.90
81524;DHT22;70954;49.500;10.416;2023-08-12T09:16:57;28.10;52.70
81524;DHT22;70954;49.500;10.416;2023-08-12T09:19:22;28.10;52.50
81524;DHT22;70954;49.500;10.416;2023-08-12T09:21:53;28.30;52.30
81524;DHT22;70954;49.500;10.416;2023-08-12T09:24:26;28.40;52.00
81524;DHT22;70954;49.500;10.416;2023-08-12T09:26:53;28.50;51.80
81524;DHT22;70954;49.500;10.416;2023-08-12T09:29:22;28.60;52.00
81524;DHT22;70954;49.500;10.416;2023-08-12T09:31:48;28.70;51.90
81524;DHT22;70954;49.500;10.416;2023-08-12T09:34:13;28.70;52.00
81524;DHT22;70954;49.500;10.416;2023-08-12T09:36:39;28.90;51.80
81524;DHT22;70954;49.500;10.416;2023-08-12T09:39:08;29.00;51.40
81524;DHT22;70954;49.500;10.416;2023-08-12T09:41:33;29.10;51.10
81524;DHT22;70954;49.500;10.416;2023-08-12T09:44:01;29.10;51.00
81524;DHT22;70954;49.500;10.416;2023-08-12T09:46:27;29.20;50.80
81524;DHT22;70954;49.500;10.416;2023-08-12T09:48:52;29.30;50.70
81524;DHT22;70954;49.500;10.416;2023-08-12T09:51:19;29.30;50.70
81524;DHT22;70954;49.500;10.416;2023-08-12T09:53:45;29.40;50.70
81524;DHT22;70954;49.500;10.416;2023-08-12T09:56:13;29.50;50.20
81524;DHT22;70954;49.500;10.416;2023-08-12T09:58:41;29.50;50.20
81524;DHT22;70954;49.500;10.416;2023-08-12T10:01:08;29.60;50.10
81524;DHT22;70954;49.500;10.416;2023-08-12T10:03:35;29.70;49.70
81524;DHT22;70954;49.500;10.416;2023-08-12T10:06:01;29.70;49.30
81524;DHT22;70954;49.500;10.416;2023-08-12T10:08:27;29.70;49.40
81524;DHT22;70954;49.500;10.416;2023-08-12T10:10:53;29.80;49.40
81524;DHT22;70954;49.500;10.416;2023-08-12T10:13:20;29.90;49.30
81524;DHT22;70954;49.500;10.416;2023-08-12T10:15:47;29.90;49.20
81524;DHT22;70954;49.500;10.416;2023-08-12T10:18:13;30.00;48.90
81524;DHT22;70954;49.500;10.416;2023-08-12T10:20:40;30.00;48.50
81524;DHT22;70954;49.500;10.416;2023-08-12T10:23:05;30.00;48.40
81524;DHT22;70954;49.500;10.416;2023-08-12T10:25:33;30.10;48.40
81524;DHT22;70954;49.500;10.416;2023-08-12T10:27:58;30.10;48.40
81524;DHT22;70954;49.500;10.416;2023-08-12T10:30:23;30.20;48.50
81524;DHT22;70954;49.500;10.416;2023-08-12T10:32:52;30.20;48.50
81524;DHT22;70954;49.500;10.416;2023-08-12T10:35:18;30.30;48.50
81524;DHT22;70954;49.500;10.416;2023-08-12T10:37:48;30.30;48.60
81524;DHT22;70954;49.500;10.416;2023-08-12T10:40:22;30.40;48.30
81524;DHT22;70954;49.500;10.416;2023-08-12T10:42:49;30.50;48.30
81524;DHT22;70954;49.500;10.416;2023-08-12T10:45:16;30.50;48.40
81524;DHT22;70954;49.500;10.416;2023-08-12T10:48:09;30.50;48.40
81524;DHT22;70954;49.500;10.416;2023-08-12T10:50:35;30.60;48.20
81524;DHT22;70954;49.500;10.416;2023-08-12T10:53:29;30.60;48.30
81524;DHT22;70954;49.500;10.416;2023-08-12T10:55:59;30.70;47.70
81524;DHT22;70954;49.500;10.416;2023-08-12T10:58:41;30.80;48.20
81524;DHT22;70954;49.500;10.416;2023-08-12T11:01:13;30.80;48.10
81524;DHT22;70954;49.500;10.416;2023-08-12T11:03:45;30.90;48.20
81524;DHT22;70954;49.500;10.416;2023-08-12T11:06:11;31.00;48.00
81524;DHT22;70954;49.500;10.416;2023-08-12T11:08:36;31.10;48.20
81524;DHT22;70954;49.500;10.416;2023-08-12T11:11:19;31.10;48.30
81524;DHT22;70954;49.500;10.416;2023-08-12T11:13:49;31.20;47.60
81524;DHT22;70954;49.500;10.416;2023-08-12T11:16:17;31.30;47.70
81524;DHT22;70954;49.500;10.416;2023-08-12T11:18:43;31.40;47.60
81524;DHT22;70954;49.500;10.416;2023-08-12T11:21:09;31.50;47.40
81524;DHT22;70954;49.500;10.416;2023-08-12T11:23:35;31.50;47.10
81524;DHT22;70954;49.500;10.416;2023-08-12T11:26:00;31.60;46.70
81524;DHT22;70954;49.500;10.416;2023-08-12T11:28:27;31.60;46.70
81524;DHT22;70954;49.500;10.416;2023-08-12T11:30:52;31.60;46.80
81524;DHT22;70954;49.500;10.416;2023-08-12T11:33:18;31.70;46.70
81524;DHT22;70954;49.500;10.416;2023-08-12T11:35:43;31.70;46.70
81524;DHT22;70954;49.500;10.416;2023-08-12T11:38:09;31.70;46.70
81524;DHT22;70954;49.500;10.416;2023-08-12T11:40:34;31.70;46.70
81524;DHT22;70954;49.500;10.416;2023-08-12T11:43:02;31.80;46.80
81524;DHT22;70954;49.500;10.416;2023-08-12T11:45:27;31.90;46.80
81524;DHT22;70954;49.500;10.416;2023-08-12T11:47:53;31.90;46.50
81524;DHT22;70954;49.500;10.416;2023-08-12T11:50:20;32.00;45.70
81524;DHT22;70954;49.500;10.416;2023-08-12T11:52:46;32.00;45.50
81524;DHT22;70954;49.500;10.416;2023-08-12T11:55:12;32.00;44.80
81524;DHT22;70954;49.500;10.416;2023-08-12T11:57:41;32.00;44.50
81524;DHT22;70954;49.500;10.416;2023-08-12T12:00:07;32.00;44.40
81524;DHT22;70954;49.500;10.416;2023-08-12T12:02:38;32.00;44.40
81524;DHT22;70954;49.500;10.416;2023-08-12T12:05:08;32.10;44.60
81524;DHT22;70954;49.500;10.416;2023-08-12T12:07:34;32.10;44.20
81524;DHT22;70954;49.500;10.416;2023-08-12T12:09:59;32.20;44.30
81524;DHT22;70954;49.500;10.416;2023-08-12T12:12:25;32.20;44.30
81524;DHT22;70954;49.500;10.416;2023-08-12T12:14:55;32.20;43.90
81524;DHT22;70954;49.500;10.416;2023-08-12T12:17:22;32.20;43.40
81524;DHT22;70954;49.500;10.416;2023-08-12T12:19:53;32.20;43.20
81524;DHT22;70954;49.500;10.416;2023-08-12T12:22:19;32.10;43.00
81524;DHT22;70954;49.500;10.416;2023-08-12T12:24:45;32.00;43.30
81524;DHT22;70954;49.500;10.416;2023-08-12T12:27:11;32.00;43.50
81524;DHT22;70954;49.500;10.416;2023-08-12T12:29:37;32.00;43.40
81524;DHT22;70954;49.500;10.416;2023-08-12T12:32:03;32.00;43.60
81524;DHT22;70954;49.500;10.416;2023-08-12T12:34:28;32.00;43.70
81524;DHT22;70954;49.500;10.416;2023-08-12T12:36:54;32.00;43.60
81524;DHT22;70954;49.500;10.416;2023-08-12T12:39:19;32.00;43.50
81524;DHT22;70954;49.500;10.416;2023-08-12T12:41:44;31.90;43.30
81524;DHT22;70954;49.500;10.416;2023-08-12T12:44:10;31.90;43.30
81524;DHT22;70954;49.500;10.416;2023-08-12T12:46:35;31.90;43.50
81524;DHT22;70954;49.500;10.416;2023-08-12T12:49:01;31.90;43.70
81524;DHT22;70954;49.500;10.416;2023-08-12T12:51:28;31.90;43.60
81524;DHT22;70954;49.500;10.416;2023-08-12T12:53:53;32.00;43.70
81524;DHT22;70954;49.500;10.416;2023-08-12T12:56:19;32.00;43.70
81524;DHT22;70954;49.500;10.416;2023-08-12T12:58:44;32.00;43.60
81524;DHT22;70954;49.500;10.416;2023-08-12T13:01:10;32.00;43.60
81524;DHT22;70954;49.500;10.416;2023-08-12T13:03:35;32.00;43.50
81524;DHT22;70954;49.500;10.416;2023-08-12T13:06:00;32.10;43.20
81524;DHT22;70954;49.500;10.416;2023-08-12T13:08:27;32.20;42.80
81524;DHT22;70954;49.500;10.416;2023-08-12T13:10:53;32.20;42.90
81524;DHT22;70954;49.500;10.416;2023-08-12T13:13:18;32.20;42.70
81524;DHT22;70954;49.500;10.416;2023-08-12T13:15:45;32.20;42.20
81524;DHT22;70954;49.500;10.416;2023-08-12T13:18:11;32.20;42.10
81524;DHT22;70954;49.500;10.416;2023-08-12T13:20:37;32.20;42.00
81524;DHT22;70954;49.500;10.416;2023-08-12T13:23:02;32.20;42.10
81524;DHT22;70954;49.500;10.416;2023-08-12T13:25:30;32.00;42.60
81524;DHT22;70954;49.500;10.416;2023-08-12T13:27:56;31.90;43.00
81524;DHT22;70954;49.500;10.416;2023-08-12T13:30:22;31.70;42.50
81524;DHT22;70954;49.500;10.416;2023-08-12T13:32:47;31.40;42.00
81524;DHT22;70954;49.500;10.416;2023-08-12T13:35:12;30.90;42.30
81524;DHT22;70954;49.500;10.416;2023-08-12T13:37:38;30.40;42.80
81524;DHT22;70954;49.500;10.416;2023-08-12T13:40:04;29.90;43.50
81524;DHT22;70954;49.500;10.416;2023-08-12T13:42:29;29.30;44.50
81524;DHT22;70954;49.500;10.416;2023-08-12T13:44:55;28.90;45.70
81524;DHT22;70954;49.500;10.416;2023-08-12T13:47:20;28.30;46.50
81524;DHT22;70954;49.500;10.416;2023-08-12T13:49:46;27.90;47.40
81524;DHT22;70954;49.500;10.416;2023-08-12T13:52:11;27.50;47.90
81524;DHT22;70954;49.500;10.416;2023-08-12T13:54:37;27.10;48.80
81524;DHT22;70954;49.500;10.416;2023-08-12T13:57:03;26.80;49.50
81524;DHT22;70954;49.500;10.416;2023-08-12T13:59:28;26.50;50.20
81524;DHT22;70954;49.500;10.416;2023-08-12T14:01:54;26.40;50.80
81524;DHT22;70954;49.500;10.416;2023-08-12T14:04:19;26.10;51.60
81524;DHT22;70954;49.500;10.416;2023-08-12T14:06:45;26.00;52.20
81524;DHT22;70954;49.500;10.416;2023-08-12T14:09:10;25.80;52.70
81524;DHT22;70954;49.500;10.416;2023-08-12T14:11:36;25.60;53.10
81524;DHT22;70954;49.500;10.416;2023-08-12T14:14:01;25.60;53.70
81524;DHT22;70954;49.500;10.416;2023-08-12T14:16:27;25.40;54.20
81524;DHT22;70954;49.500;10.416;2023-08-12T14:18:52;25.40;54.70
81524;DHT22;70954;49.500;10.416;2023-08-12T14:21:18;25.30;55.30
81524;DHT22;70954;49.500;10.416;2023-08-12T14:23:43;25.20;55.70
81524;DHT22;70954;49.500;10.416;2023-08-12T14:26:08;25.10;56.00
81524;DHT22;70954;49.500;10.416;2023-08-12T14:28:34;25.10;56.40
81524;DHT22;70954;49.500;10.416;2023-08-12T14:30:59;25.00;56.80
81524;DHT22;70954;49.500;10.416;2023-08-12T14:33:25;25.00;57.20
81524;DHT22;70954;49.500;10.416;2023-08-12T14:35:51;25.00;57.50
81524;DHT22;70954;49.500;10.416;2023-08-12T14:38:16;25.00;57.80
81524;DHT22;70954;49.500;10.416;2023-08-12T14:40:45;25.00;57.90
81524;DHT22;70954;49.500;10.416;2023-08-12T14:43:11;25.00;58.00
81524;DHT22;70954;49.500;10.416;2023-08-12T14:45:37;25.00;58.10
81524;DHT22;70954;49.500;10.416;2023-08-12T14:48:02;25.00;58.20
81524;DHT22;70954;49.500;10.416;2023-08-12T14:50:28;24.90;58.40
81524;DHT22;70954;49.500;10.416;2023-08-12T14:52:53;24.90;58.60
81524;DHT22;70954;49.500;10.416;2023-08-12T14:55:19;24.80;58.80
81524;DHT22;70954;49.500;10.416;2023-08-12T14:57:44;24.80;59.00
81524;DHT22;70954;49.500;10.416;2023-08-12T15:00:10;24.80;59.10
81524;DHT22;70954;49.500;10.416;2023-08-12T15:02:36;24.70;59.20
81524;DHT22;70954;49.500;10.416;2023-08-12T15:05:01;24.70;59.30
81524;DHT22;70954;49.500;10.416;2023-08-12T15:07:27;24.70;59.50
81524;DHT22;70954;49.500;10.416;2023-08-12T15:09:52;24.60;59.70
81524;DHT22;70954;49.500;10.416;2023-08-12T15:12:18;24.60;59.80
81524;DHT22;70954;49.500;10.416;2023-08-12T15:14:43;24.60;59.90